createdAt,value
2018-10-06T00:01:23.408Z,9.99
2018-10-06T00:03:50.492Z,9.91
2018-10-06T00:06:17.626Z,9.87
2018-10-06T00:08:44.849Z,9.72
2018-10-06T00:11:11.949Z,9.62
2018-10-06T00:13:39.037Z,9.51
2018-10-06T00:16:06.160Z,9.35
2018-10-06T00:18:33.264Z,9.19
2018-10-06T00:21:00.370Z,9.06
2018-10-06T00:23:27.524Z,8.97
2018-10-06T00:25:54.616Z,8.85
2018-10-06T00:28:21.741Z,8.82
2018-10-06T00:30:48.868Z,8.73
2018-10-06T00:33:15.979Z,8.90
2018-10-06T00:35:43.076Z,9.12
2018-10-06T00:38:10.247Z,9.20
2018-10-06T00:40:37.360Z,9.34
2018-10-06T00:43:04.453Z,9.45
2018-10-06T00:45:31.596Z,9.44
2018-10-06T00:47:58.713Z,9.42
2018-10-06T00:50:25.813Z,9.48
2018-10-06T00:52:53.008Z,9.47
2018-10-06T00:55:20.102Z,9.45
2018-10-06T00:57:47.196Z,9.40
2018-10-06T01:00:14.337Z,9.35
2018-10-06T01:02:41.435Z,9.28
2018-10-06T01:05:08.531Z,9.25
2018-10-06T01:07:35.676Z,9.17
2018-10-06T01:10:02.814Z,9.11
2018-10-06T01:12:29.905Z,9.11
2018-10-06T01:14:57.064Z,9.14
2018-10-06T01:17:24.167Z,9.23
2018-10-06T01:19:51.283Z,9.24
2018-10-06T01:22:18.408Z,9.22
2018-10-06T01:24:45.492Z,9.33
2018-10-06T01:27:12.597Z,9.36
2018-10-06T01:29:39.829Z,9.44
2018-10-06T01:32:07.016Z,9.55
2018-10-06T01:34:34.508Z,9.51
2018-10-06T01:37:01.737Z,9.57
2018-10-06T01:39:29.264Z,9.66
2018-10-06T01:41:56.381Z,9.71
2018-10-06T01:44:23.533Z,9.86
2018-10-06T01:46:50.831Z,9.82
2018-10-06T01:49:17.922Z,9.78
2018-10-06T01:51:45.051Z,9.71
2018-10-06T01:54:12.205Z,9.65
2018-10-06T01:56:39.340Z,9.58
2018-10-06T01:59:06.688Z,9.53
2018-10-06T02:01:33.836Z,9.43
2018-10-06T02:04:00.925Z,9.40
2018-10-06T02:06:28.220Z,9.32
2018-10-06T02:08:55.297Z,9.28
2018-10-06T02:11:22.401Z,9.23
2018-10-06T02:13:49.547Z,9.23
2018-10-06T02:16:16.725Z,9.21
2018-10-06T02:18:43.809Z,9.23
2018-10-06T02:21:11.081Z,9.20
2018-10-06T02:23:38.184Z,9.30
2018-10-06T02:26:05.683Z,9.38
2018-10-06T02:28:32.824Z,9.40
2018-10-06T02:30:59.917Z,9.32
2018-10-06T02:33:27.017Z,9.43
2018-10-06T02:35:54.234Z,9.47
2018-10-06T02:38:21.403Z,9.49
2018-10-06T02:40:48.500Z,9.60
2018-10-06T02:43:15.619Z,9.51
2018-10-06T02:45:42.733Z,9.47
2018-10-06T02:48:09.807Z,9.42
2018-10-06T02:50:36.952Z,9.31
2018-10-06T02:53:04.048Z,9.20
2018-10-06T02:55:31.203Z,9.07
2018-10-06T02:57:58.347Z,9.06
2018-10-06T03:00:25.465Z,9.00
2018-10-06T03:02:52.559Z,9.04
2018-10-06T03:05:19.784Z,9.14
2018-10-06T03:07:46.897Z,9.17
2018-10-06T03:10:14.001Z,9.09
2018-10-06T03:12:41.132Z,9.08
2018-10-06T03:15:08.235Z,9.04
2018-10-06T03:17:35.332Z,9.02
2018-10-06T03:20:02.551Z,8.93
2018-10-06T03:22:29.661Z,8.89
2018-10-06T03:24:56.759Z,8.85
2018-10-06T03:27:23.905Z,8.78
2018-10-06T03:29:50.996Z,8.77
2018-10-06T03:32:18.085Z,8.68
2018-10-06T03:34:45.233Z,8.74
2018-10-06T03:37:12.399Z,8.73
2018-10-06T03:39:39.492Z,8.67
2018-10-06T03:42:06.624Z,8.61
2018-10-06T03:44:33.733Z,8.50
2018-10-06T03:47:00.828Z,8.49
2018-10-06T03:49:27.949Z,8.44
2018-10-06T03:51:55.043Z,8.38
2018-10-06T03:54:29.234Z,8.32
2018-10-06T03:56:56.521Z,8.27
2018-10-06T03:59:23.633Z,8.22
2018-10-06T04:01:50.793Z,8.16
2018-10-06T04:04:23.442Z,8.12
2018-10-06T04:06:50.948Z,8.13
2018-10-06T04:09:18.063Z,8.10
2018-10-06T04:11:45.145Z,8.12
2018-10-06T04:14:12.313Z,8.13
2018-10-06T04:16:39.412Z,8.17
2018-10-06T04:19:06.509Z,8.13
2018-10-06T04:21:39.205Z,8.21
2018-10-06T04:24:06.305Z,8.28
2018-10-06T04:26:33.393Z,8.30
2018-10-06T04:29:00.527Z,8.33
2018-10-06T04:31:27.616Z,8.43
2018-10-06T04:33:54.704Z,8.41
2018-10-06T04:36:21.904Z,8.41
2018-10-06T04:38:49.005Z,8.43
2018-10-06T04:41:16.085Z,8.48
2018-10-06T04:43:43.217Z,8.47
2018-10-06T04:46:10.373Z,8.47
2018-10-06T04:48:37.476Z,8.48
2018-10-06T04:51:04.667Z,8.52
2018-10-06T04:53:31.749Z,8.48
2018-10-06T04:55:58.832Z,8.51
2018-10-06T04:58:26.013Z,8.50
2018-10-06T05:00:53.216Z,8.47
2018-10-06T05:03:20.403Z,8.41
2018-10-06T05:05:47.692Z,8.36
2018-10-06T05:08:14.833Z,8.37
2018-10-06T05:10:42.107Z,8.33
2018-10-06T05:13:09.380Z,8.34
2018-10-06T05:15:36.468Z,8.33
2018-10-06T05:18:03.628Z,8.24
2018-10-06T05:20:30.784Z,8.13
2018-10-06T05:22:57.980Z,8.17
2018-10-06T05:25:25.196Z,8.16
2018-10-06T05:27:52.397Z,8.09
2018-10-06T05:30:19.824Z,8.08
2018-10-06T05:32:46.921Z,8.11
2018-10-06T05:35:14.093Z,8.15
2018-10-06T05:37:41.200Z,8.20
2018-10-06T05:40:08.332Z,8.28
2018-10-06T05:42:35.475Z,8.38
2018-10-06T05:45:02.668Z,8.49
2018-10-06T05:47:30.509Z,8.64
2018-10-06T05:49:58.393Z,8.72
2018-10-06T05:52:25.589Z,8.90
2018-10-06T05:54:52.982Z,9.00
2018-10-06T05:57:20.436Z,9.11
2018-10-06T05:59:47.741Z,9.14
2018-10-06T06:02:16.779Z,9.23
2018-10-06T06:04:43.940Z,9.31
2018-10-06T06:07:11.184Z,9.39
2018-10-06T06:09:38.364Z,9.52
2018-10-06T06:12:05.596Z,9.65
2018-10-06T06:14:32.744Z,9.78
2018-10-06T06:16:59.925Z,9.84
2018-10-06T06:19:27.081Z,10.01
2018-10-06T06:21:54.264Z,10.13
2018-10-06T06:24:21.353Z,10.28
2018-10-06T06:26:48.499Z,10.41
2018-10-06T06:29:15.718Z,10.58
2018-10-06T06:31:42.888Z,10.69
2018-10-06T06:34:10.182Z,10.83
2018-10-06T06:36:37.436Z,11.03
2018-10-06T06:39:05.315Z,11.08
2018-10-06T06:41:32.782Z,11.24
2018-10-06T06:43:59.983Z,11.31
2018-10-06T06:46:27.064Z,11.46
2018-10-06T06:48:54.225Z,11.57
2018-10-06T06:51:21.485Z,11.68
2018-10-06T06:53:48.656Z,11.86
2018-10-06T06:56:15.872Z,11.93
2018-10-06T06:58:42.998Z,12.05
2018-10-06T07:01:10.140Z,12.10
2018-10-06T07:03:37.320Z,12.27
2018-10-06T07:06:12.392Z,12.35
2018-10-06T07:08:39.835Z,12.44
2018-10-06T07:11:06.985Z,12.60
2018-10-06T07:13:34.433Z,12.67
2018-10-06T07:16:01.589Z,12.84
2018-10-06T07:18:28.813Z,12.97
2018-10-06T07:20:55.953Z,13.08
2018-10-06T07:23:24.114Z,13.15
2018-10-06T07:25:51.237Z,13.23
2018-10-06T07:28:18.357Z,13.37
2018-10-06T07:30:45.569Z,13.55
2018-10-06T07:33:12.666Z,13.81
2018-10-06T07:35:39.772Z,13.97
2018-10-06T07:38:06.932Z,14.04
2018-10-06T07:40:34.052Z,14.33
2018-10-06T07:43:01.153Z,14.43
2018-10-06T07:45:28.417Z,14.56
2018-10-06T07:47:55.513Z,14.68
2018-10-06T07:50:23.538Z,14.94
2018-10-06T07:52:50.789Z,15.25
2018-10-06T07:55:17.872Z,15.56
2018-10-06T07:57:44.977Z,15.70
2018-10-06T08:00:12.108Z,15.79
2018-10-06T08:02:39.254Z,15.98
2018-10-06T08:05:06.489Z,16.04
2018-10-06T08:07:33.612Z,16.38
2018-10-06T08:10:00.695Z,16.62
2018-10-06T08:12:27.801Z,16.73
2018-10-06T08:14:54.927Z,16.99
2018-10-06T08:17:22.023Z,17.09
2018-10-06T08:19:49.263Z,17.06
2018-10-06T08:22:16.414Z,17.06
2018-10-06T08:24:43.503Z,17.24
2018-10-06T08:27:10.593Z,17.42
2018-10-06T08:29:37.720Z,17.59
2018-10-06T08:32:04.884Z,17.54
2018-10-06T08:34:31.972Z,17.79
2018-10-06T08:36:59.233Z,18.03
2018-10-06T08:39:26.410Z,18.23
2018-10-06T08:41:53.501Z,18.06
2018-10-06T08:44:20.746Z,17.66
2018-10-06T08:46:47.845Z,18.02
2018-10-06T08:49:15.132Z,18.13
2018-10-06T08:51:42.299Z,18.29
2018-10-06T08:54:09.400Z,18.23
2018-10-06T08:56:36.503Z,18.15
2018-10-06T08:59:03.688Z,18.30
2018-10-06T09:01:30.809Z,18.45
2018-10-06T09:03:57.972Z,18.40
2018-10-06T09:06:25.136Z,18.59
2018-10-06T09:08:52.248Z,18.63
2018-10-06T09:11:19.431Z,18.61
2018-10-06T09:13:46.602Z,18.54
2018-10-06T09:16:13.740Z,18.59
2018-10-06T09:18:40.910Z,18.86
2018-10-06T09:21:08.080Z,19.23
2018-10-06T09:23:35.212Z,19.46
2018-10-06T09:26:02.326Z,20.01
2018-10-06T09:28:29.587Z,19.67
2018-10-06T09:30:56.999Z,19.95
2018-10-06T09:33:24.914Z,20.24
2018-10-06T09:35:53.538Z,20.41
2018-10-06T09:38:20.728Z,20.82
2018-10-06T09:40:48.281Z,20.96
2018-10-06T09:43:15.548Z,21.25
2018-10-06T09:45:42.837Z,21.26
2018-10-06T09:48:10.113Z,21.57
2018-10-06T09:50:37.419Z,21.63
2018-10-06T09:53:05.226Z,21.66
2018-10-06T09:55:32.396Z,22.21
2018-10-06T09:57:59.580Z,22.02
2018-10-06T10:00:32.651Z,21.58
2018-10-06T10:03:05.572Z,21.80
2018-10-06T10:05:38.614Z,21.97
2018-10-06T10:08:10.195Z,21.75
2018-10-06T10:10:39.781Z,22.30
2018-10-06T10:13:07.937Z,22.49
2018-10-06T10:15:38.245Z,22.68
2018-10-06T10:18:05.583Z,22.58
2018-10-06T10:20:33.576Z,22.50
2018-10-06T10:23:00.903Z,22.39
2018-10-06T10:25:28.209Z,22.42
2018-10-06T10:27:55.331Z,22.83
2018-10-06T10:30:22.632Z,23.06
2018-10-06T10:32:49.766Z,22.85
2018-10-06T10:35:18.291Z,22.73
2018-10-06T10:37:45.484Z,22.57
2018-10-06T10:40:12.606Z,22.68
2018-10-06T10:42:39.734Z,22.59
2018-10-06T10:45:07.054Z,22.72
2018-10-06T10:47:34.316Z,22.60
2018-10-06T10:50:01.533Z,22.53
2018-10-06T10:52:29.403Z,22.65
2018-10-06T10:54:56.563Z,22.80
2018-10-06T10:57:27.567Z,22.95
2018-10-06T11:00:00.022Z,22.72
2018-10-06T11:02:27.842Z,22.71
2018-10-06T11:04:55.389Z,22.62
2018-10-06T11:07:24.170Z,22.67
2018-10-06T11:09:52.025Z,22.54
2018-10-06T11:12:19.249Z,22.49
2018-10-06T11:14:48.378Z,22.22
2018-10-06T11:17:15.629Z,22.19
2018-10-06T11:19:42.893Z,22.28
2018-10-06T11:22:10.218Z,22.23
2018-10-06T11:24:37.465Z,22.36
2018-10-06T11:27:04.752Z,22.54
2018-10-06T11:29:31.962Z,22.78
2018-10-06T11:31:59.126Z,22.99
2018-10-06T11:34:27.020Z,22.79
2018-10-06T11:36:55.698Z,22.58
2018-10-06T11:39:22.829Z,22.68
2018-10-06T11:41:49.984Z,22.89
2018-10-06T11:44:17.680Z,22.91
2018-10-06T11:46:44.841Z,22.99
2018-10-06T11:49:12.745Z,23.00
2018-10-06T11:51:40.905Z,23.13
2018-10-06T11:54:08.721Z,23.24
2018-10-06T11:56:36.033Z,23.03
2018-10-06T11:59:03.649Z,23.23
2018-10-06T12:01:30.861Z,23.11
2018-10-06T12:03:58.093Z,23.08
2018-10-06T12:06:25.301Z,23.21
2018-10-06T12:08:52.550Z,23.05
2018-10-06T12:11:23.616Z,22.91
2018-10-06T12:13:56.425Z,23.22
2018-10-06T12:16:23.565Z,23.02
2018-10-06T12:18:50.974Z,23.09
2018-10-06T12:21:18.260Z,23.07
2018-10-06T12:23:45.396Z,22.94
2018-10-06T12:26:12.629Z,22.87
2018-10-06T12:28:39.802Z,22.94
2018-10-06T12:31:10.220Z,22.85
2018-10-06T12:33:37.377Z,22.58
2018-10-06T12:36:04.636Z,22.50
2018-10-06T12:38:31.793Z,22.35
2018-10-06T12:40:59.069Z,22.19
2018-10-06T12:43:26.237Z,22.04
2018-10-06T12:45:53.372Z,21.90
2018-10-06T12:48:20.513Z,21.84
2018-10-06T12:50:47.675Z,21.85
2018-10-06T12:53:14.817Z,21.85
2018-10-06T12:55:41.949Z,21.78
2018-10-06T12:58:09.132Z,21.81
2018-10-06T13:00:36.265Z,21.82
2018-10-06T13:03:03.395Z,21.75
2018-10-06T13:05:30.565Z,21.84
2018-10-06T13:07:57.724Z,21.80
2018-10-06T13:10:24.948Z,22.02
2018-10-06T13:12:52.189Z,21.95
2018-10-06T13:15:19.321Z,22.04
2018-10-06T13:17:46.493Z,22.04
2018-10-06T13:20:13.686Z,21.96
2018-10-06T13:22:40.845Z,21.97
2018-10-06T13:25:08.134Z,21.85
2018-10-06T13:27:35.320Z,21.76
2018-10-06T13:30:02.495Z,21.67
2018-10-06T13:32:29.692Z,21.73
2018-10-06T13:34:56.877Z,21.70
2018-10-06T13:37:24.015Z,21.58
2018-10-06T13:39:51.183Z,21.82
2018-10-06T13:42:18.369Z,21.81
2018-10-06T13:44:45.503Z,21.60
2018-10-06T13:47:12.637Z,21.64
2018-10-06T13:49:39.812Z,21.86
2018-10-06T13:52:07.001Z,21.64
2018-10-06T13:54:34.158Z,21.56
2018-10-06T13:57:01.392Z,21.47
2018-10-06T13:59:28.556Z,21.44
2018-10-06T14:01:55.697Z,21.34
2018-10-06T14:04:23.485Z,21.42
2018-10-06T14:06:50.630Z,21.49
2018-10-06T14:09:17.764Z,21.63
2018-10-06T14:11:45.033Z,21.87
2018-10-06T14:14:12.187Z,22.06
2018-10-06T14:16:39.422Z,22.15
2018-10-06T14:19:06.606Z,22.15
2018-10-06T14:21:33.809Z,22.13
2018-10-06T14:24:00.953Z,22.16
2018-10-06T14:26:28.184Z,22.30
2018-10-06T14:28:55.364Z,22.27
2018-10-06T14:31:22.534Z,22.32
2018-10-06T14:33:49.727Z,22.42
2018-10-06T14:36:16.861Z,22.46
2018-10-06T14:38:44.034Z,22.55
2018-10-06T14:41:11.269Z,22.49
2018-10-06T14:43:38.416Z,22.41
2018-10-06T14:46:06.050Z,22.38
2018-10-06T14:48:33.277Z,22.22
2018-10-06T14:51:00.393Z,22.15
2018-10-06T14:53:27.585Z,21.99
2018-10-06T14:55:54.760Z,21.87
2018-10-06T14:58:21.883Z,21.77
2018-10-06T15:00:49.012Z,21.69
2018-10-06T15:03:16.182Z,21.65
2018-10-06T15:05:43.333Z,21.60
2018-10-06T15:08:10.461Z,21.56
2018-10-06T15:10:37.669Z,21.42
2018-10-06T15:13:04.892Z,21.43
2018-10-06T15:15:32.045Z,21.25
2018-10-06T15:17:59.245Z,21.13
2018-10-06T15:20:26.385Z,20.95
2018-10-06T15:22:53.680Z,20.92
2018-10-06T15:25:20.855Z,20.80
2018-10-06T15:27:47.973Z,20.67
2018-10-06T15:30:15.102Z,20.56
2018-10-06T15:32:42.272Z,20.52
2018-10-06T15:35:09.390Z,20.44
2018-10-06T15:37:36.520Z,20.37
2018-10-06T15:40:03.722Z,20.39
2018-10-06T15:42:30.851Z,20.24
2018-10-06T15:44:57.973Z,20.18
2018-10-06T15:47:25.164Z,20.15
2018-10-06T15:49:52.310Z,20.05
2018-10-06T15:52:19.445Z,20.05
2018-10-06T15:54:46.630Z,19.93
2018-10-06T15:57:13.784Z,19.83
2018-10-06T15:59:40.903Z,19.73
2018-10-06T16:02:08.216Z,19.59
2018-10-06T16:04:35.342Z,19.41
2018-10-06T16:07:02.472Z,19.30
2018-10-06T16:09:29.628Z,19.16
2018-10-06T16:11:56.744Z,19.01
2018-10-06T16:14:23.907Z,18.89
2018-10-06T16:16:51.164Z,18.77
2018-10-06T16:19:18.325Z,18.66
2018-10-06T16:21:45.469Z,18.57
2018-10-06T16:24:12.672Z,18.55
2018-10-06T16:26:39.942Z,18.50
2018-10-06T16:29:07.107Z,18.43
2018-10-06T16:31:34.624Z,18.46
2018-10-06T16:34:01.774Z,18.56
2018-10-06T16:36:28.894Z,18.73
2018-10-06T16:38:56.068Z,18.69
2018-10-06T16:41:23.338Z,18.67
2018-10-06T16:43:50.420Z,18.62
2018-10-06T16:46:17.685Z,18.61
2018-10-06T16:48:44.834Z,18.67
2018-10-06T16:51:11.984Z,18.63
2018-10-06T16:53:39.157Z,18.64
2018-10-06T16:56:06.301Z,18.66
2018-10-06T16:58:33.465Z,18.66
2018-10-06T17:01:00.633Z,18.62
2018-10-06T17:03:27.768Z,18.60
2018-10-06T17:05:54.895Z,18.55
2018-10-06T17:08:22.060Z,18.47
2018-10-06T17:10:49.199Z,18.49
2018-10-06T17:13:16.309Z,18.47
2018-10-06T17:15:45.193Z,18.50
2018-10-06T17:18:12.318Z,18.46
2018-10-06T17:20:39.453Z,18.46
2018-10-06T17:23:06.695Z,18.45
2018-10-06T17:25:33.819Z,18.41
2018-10-06T17:28:00.926Z,18.34
2018-10-06T17:30:28.164Z,18.34
2018-10-06T17:32:55.339Z,18.43
2018-10-06T17:35:22.640Z,18.44
2018-10-06T17:37:49.799Z,18.37
2018-10-06T17:40:16.957Z,18.35
2018-10-06T17:42:44.081Z,18.29
2018-10-06T17:45:11.344Z,18.19
2018-10-06T17:47:38.571Z,18.18
2018-10-06T17:50:05.906Z,18.16
2018-10-06T17:52:33.014Z,18.12
2018-10-06T17:55:00.144Z,18.08
2018-10-06T17:57:27.331Z,18.07
2018-10-06T17:59:54.491Z,18.06
2018-10-06T18:02:21.735Z,17.99
2018-10-06T18:04:48.910Z,17.90
2018-10-06T18:07:16.190Z,17.88
2018-10-06T18:09:43.420Z,17.87
2018-10-06T18:12:10.537Z,17.74
2018-10-06T18:14:37.864Z,17.63
2018-10-06T18:17:05.213Z,17.55
2018-10-06T18:19:32.327Z,17.49
2018-10-06T18:21:59.544Z,17.38
2018-10-06T18:24:26.682Z,17.31
2018-10-06T18:26:53.955Z,17.19
2018-10-06T18:29:21.240Z,17.12
2018-10-06T18:31:48.880Z,17.08
2018-10-06T18:37:01.631Z,17.11
2018-10-06T18:39:28.713Z,17.15
2018-10-06T18:41:55.853Z,17.11
2018-10-06T18:44:23.116Z,17.15
2018-10-06T18:46:50.313Z,17.10
2018-10-06T18:49:17.461Z,17.08
2018-10-06T18:51:44.666Z,17.09
2018-10-06T18:54:11.821Z,17.11
2018-10-06T18:56:38.940Z,17.05
2018-10-06T18:59:06.125Z,17.12
2018-10-06T19:01:33.248Z,17.12
2018-10-06T19:04:00.433Z,17.05
2018-10-06T19:06:27.665Z,17.18
2018-10-06T19:08:54.784Z,17.18
2018-10-06T19:11:22.008Z,17.13
2018-10-06T19:13:49.205Z,17.09
2018-10-06T19:16:16.386Z,17.08
2018-10-06T19:18:43.545Z,17.06
2018-10-06T19:21:10.699Z,17.00
2018-10-06T19:23:37.824Z,16.90
2018-10-06T19:26:04.941Z,16.87
2018-10-06T19:28:32.084Z,16.82
2018-10-06T19:30:59.180Z,16.77
2018-10-06T19:33:26.299Z,16.76
2018-10-06T19:35:53.469Z,16.71
2018-10-06T19:38:20.584Z,16.71
2018-10-06T19:40:47.797Z,16.72
2018-10-06T19:43:14.993Z,16.68
2018-10-06T19:45:42.118Z,16.73
2018-10-06T19:48:09.224Z,16.70
2018-10-06T19:50:36.524Z,16.75
2018-10-06T19:53:03.680Z,16.76
2018-10-06T19:55:30.860Z,16.79
2018-10-06T19:57:58.104Z,16.77
2018-10-06T20:00:25.364Z,16.73
2018-10-06T20:02:52.560Z,16.70
2018-10-06T20:05:19.774Z,16.67
2018-10-06T20:07:47.000Z,16.60
2018-10-06T20:10:14.210Z,16.55
2018-10-06T20:12:41.534Z,16.54
2018-10-06T20:15:08.820Z,16.47
2018-10-06T20:17:36.036Z,16.42
2018-10-06T20:20:03.331Z,16.37
2018-10-06T20:22:30.537Z,16.28
2018-10-06T20:24:57.725Z,16.26
2018-10-06T20:27:24.914Z,16.21
2018-10-06T20:29:52.096Z,16.18
2018-10-06T20:32:19.307Z,16.11
2018-10-06T20:34:46.530Z,16.07
2018-10-06T20:37:13.728Z,16.04
2018-10-06T20:39:40.947Z,16.01
2018-10-06T20:42:08.245Z,15.91
2018-10-06T20:44:35.472Z,15.88
2018-10-06T20:47:02.670Z,15.86
2018-10-06T20:49:29.965Z,15.83
2018-10-06T20:51:57.155Z,15.86
2018-10-06T20:54:24.338Z,15.83
2018-10-06T20:56:51.589Z,15.81
2018-10-06T20:59:18.844Z,15.76
2018-10-06T21:01:46.103Z,15.70
2018-10-06T21:04:13.346Z,15.70
2018-10-06T21:06:40.546Z,15.70
2018-10-06T21:09:09.620Z,15.64
2018-10-06T21:11:36.858Z,15.68
2018-10-06T21:14:04.065Z,15.69
2018-10-06T21:16:31.293Z,15.70
2018-10-06T21:18:58.553Z,15.69
2018-10-06T21:21:25.772Z,15.70
2018-10-06T21:23:52.967Z,15.71
2018-10-06T21:26:20.178Z,15.68
2018-10-06T21:28:47.438Z,15.66
2018-10-06T21:31:14.640Z,15.73
2018-10-06T21:33:41.868Z,15.74
2018-10-06T21:36:09.087Z,15.77
2018-10-06T21:38:36.312Z,15.81
2018-10-06T21:41:03.507Z,15.80
2018-10-06T21:43:30.693Z,15.81
2018-10-06T21:45:57.879Z,15.76
2018-10-06T21:48:25.076Z,15.76
2018-10-06T21:50:52.309Z,15.79
2018-10-06T21:53:19.484Z,15.78
2018-10-06T21:55:46.722Z,15.88
2018-10-06T21:58:14.698Z,15.88
2018-10-06T22:00:41.905Z,15.90
2018-10-06T22:03:09.415Z,15.89
2018-10-06T22:05:37.062Z,15.85
2018-10-06T22:08:05.060Z,15.79
2018-10-06T22:10:32.261Z,15.85
2018-10-06T22:12:59.430Z,15.76
2018-10-06T22:15:26.705Z,15.79
2018-10-06T22:17:54.017Z,15.81
2018-10-06T22:20:21.217Z,15.76
2018-10-06T22:22:48.875Z,15.69
2018-10-06T22:25:16.478Z,15.63
2018-10-06T22:27:43.971Z,15.61
2018-10-06T22:30:11.141Z,15.60
2018-10-06T22:32:38.787Z,15.57
2018-10-06T22:35:06.480Z,15.61
2018-10-06T22:37:33.710Z,15.52
2018-10-06T22:40:00.920Z,15.46
2018-10-06T22:42:28.137Z,15.38
2018-10-06T22:44:55.290Z,15.33
2018-10-06T22:47:22.489Z,15.33
2018-10-06T22:49:49.655Z,15.38
2018-10-06T22:52:16.891Z,15.38
2018-10-06T22:54:44.225Z,15.38
2018-10-06T22:57:11.374Z,15.45
2018-10-06T22:59:38.527Z,15.42
2018-10-06T23:02:05.941Z,15.42
2018-10-06T23:04:33.130Z,15.37
2018-10-06T23:07:00.377Z,15.42
2018-10-06T23:09:27.729Z,15.36
2018-10-06T23:11:54.907Z,15.37
2018-10-06T23:14:22.056Z,15.34
2018-10-06T23:16:49.268Z,15.31
2018-10-06T23:19:16.504Z,15.47
2018-10-06T23:21:43.678Z,15.43
2018-10-06T23:24:10.909Z,15.38
2018-10-06T23:26:38.032Z,15.38
2018-10-06T23:29:05.237Z,15.34
2018-10-06T23:31:33.381Z,15.26
2018-10-06T23:34:01.142Z,15.17
2018-10-06T23:36:28.377Z,15.12
2018-10-06T23:38:55.657Z,15.20
2018-10-06T23:41:22.821Z,15.19
2018-10-06T23:43:50.656Z,15.03
2018-10-06T23:46:17.845Z,14.93
2018-10-06T23:48:45.041Z,14.83
2018-10-06T23:51:12.170Z,14.86
2018-10-06T23:53:39.373Z,14.78
2018-10-06T23:56:06.540Z,14.82
2018-10-06T23:58:33.712Z,14.84
